Time;durP1;ratioP1;P1;durP2;ratioP2;P2;SDS_P1;SDS_P2;PMS_P1;PMS_P2;Temp;Humidity;BMP_temperature;BMP_pressure;BME280_temperature;BME280_humidity;BME280_pressure;Samples;Min_cycle;Max_cycle;Signal;HPM_P1;HPM_P2
2024/04/11 00:01:21;;;;;;;;;;;12.20;99.90;;;;;;5452258;26;19957;-75
2024/04/11 00:03:47;;;;;;;;;;;12.10;99.90;;;;;;5452144;26;19928;-75
2024/04/11 00:06:12;;;;;;;;;;;12.20;99.90;;;;;;5452321;26;19935;-75
2024/04/11 00:08:38;;;;;;;;;;;12.20;99.90;;;;;;5451301;26;19944;-75
2024/04/11 00:11:04;;;;;;;;;;;12.20;99.80;;;;;;5452859;26;19928;-75
2024/04/11 00:13:29;;;;;;;;;;;12.20;99.90;;;;;;5449040;26;19963;-75
2024/04/11 00:15:56;;;;;;;;;;;12.20;99.90;;;;;;5452150;26;19932;-74
2024/04/11 00:18:23;;;;;;;;;;;12.20;99.90;;;;;;5452205;26;19943;-75
2024/04/11 00:20:48;;;;;;;;;;;12.30;99.70;;;;;;5451522;26;19929;-74
2024/04/11 00:23:14;;;;;;;;;;;12.30;99.80;;;;;;5450265;26;19997;-75
2024/04/11 00:25:41;;;;;;;;;;;12.10;99.90;;;;;;5450934;26;20028;-75
2024/04/11 00:28:09;;;;;;;;;;;12.00;99.90;;;;;;5452058;26;19936;-75
2024/04/11 00:30:35;;;;;;;;;;;12.00;99.90;;;;;;5449799;26;20360;-75
2024/04/11 00:33:00;;;;;;;;;;;12.30;99.90;;;;;;5450253;26;19929;-75
2024/04/11 00:35:26;;;;;;;;;;;12.50;99.60;;;;;;5450244;26;19935;-74
2024/04/11 00:37:51;;;;;;;;;;;12.50;99.50;;;;;;5451908;26;19929;-75
2024/04/11 00:40:18;;;;;;;;;;;12.50;99.60;;;;;;5451653;26;19936;-74
2024/04/11 00:42:43;;;;;;;;;;;12.60;99.80;;;;;;5450113;26;19928;-75
2024/04/11 00:45:09;;;;;;;;;;;12.60;99.60;;;;;;5450020;26;19939;-75
2024/04/11 00:47:35;;;;;;;;;;;12.60;99.50;;;;;;5448600;26;19935;-75
2024/04/11 00:50:01;;;;;;;;;;;12.60;99.50;;;;;;5451553;26;19928;-75
2024/04/11 00:52:28;;;;;;;;;;;12.70;99.40;;;;;;5451346;26;20612;-75
2024/04/11 00:54:54;;;;;;;;;;;12.60;99.60;;;;;;5451930;26;19935;-75
2024/04/11 00:57:20;;;;;;;;;;;12.40;99.70;;;;;;5451327;26;20344;-75
2024/04/11 00:59:46;;;;;;;;;;;12.50;99.80;;;;;;5451276;26;19929;-74
2024/04/11 01:02:12;;;;;;;;;;;12.50;99.90;;;;;;5449446;26;19936;-74
2024/04/11 01:04:38;;;;;;;;;;;12.50;99.90;;;;;;5448869;26;19940;-75
2024/04/11 01:07:08;;;;;;;;;;;12.40;99.90;;;;;;5449322;26;19928;-75
2024/04/11 01:09:37;;;;;;;;;;;12.50;99.90;;;;;;5451464;26;19929;-75
2024/04/11 01:12:03;;;;;;;;;;;12.40;99.90;;;;;;5449509;26;19948;-75
2024/04/11 01:14:28;;;;;;;;;;;12.40;99.90;;;;;;5451923;26;19935;-75
2024/04/11 01:16:54;;;;;;;;;;;12.50;99.90;;;;;;5451999;26;19936;-75
2024/04/11 01:19:20;;;;;;;;;;;12.50;99.90;;;;;;5450208;26;19964;-75
2024/04/11 01:21:46;;;;;;;;;;;12.50;99.90;;;;;;5451140;26;19932;-75
2024/04/11 01:24:13;;;;;;;;;;;12.40;99.90;;;;;;5453417;26;19935;-75
2024/04/11 01:26:39;;;;;;;;;;;12.30;99.90;;;;;;5445119;26;19944;-75
2024/04/11 01:29:07;;;;;;;;;;;12.50;99.90;;;;;;5427286;26;20237;-74
2024/04/11 01:31:33;;;;;;;;;;;12.40;99.90;;;;;;5447870;26;20399;-75
2024/04/11 01:33:58;;;;;;;;;;;12.40;99.90;;;;;;5449461;26;19947;-74
2024/04/11 01:36:24;;;;;;;;;;;12.60;99.90;;;;;;5472969;26;19983;-74
2024/04/11 01:38:50;;;;;;;;;;;12.70;99.90;;;;;;5443408;26;19928;-75
2024/04/11 01:41:15;;;;;;;;;;;12.70;99.90;;;;;;5454528;26;19935;-75
2024/04/11 01:43:41;;;;;;;;;;;12.70;99.90;;;;;;5454889;26;19928;-75
2024/04/11 01:46:07;;;;;;;;;;;12.70;99.90;;;;;;5454572;26;19929;-75
2024/04/11 01:48:33;;;;;;;;;;;12.60;99.90;;;;;;5454378;26;19936;-75
2024/04/11 01:50:58;;;;;;;;;;;12.70;99.90;;;;;;5455035;26;19956;-75
2024/04/11 01:53:24;;;;;;;;;;;12.80;99.90;;;;;;5455131;26;19937;-75
2024/04/11 01:55:49;;;;;;;;;;;12.80;99.90;;;;;;5454286;26;19936;-74
2024/04/11 01:58:16;;;;;;;;;;;12.90;99.90;;;;;;5454730;26;19929;-75
2024/04/11 02:00:43;;;;;;;;;;;13.00;99.90;;;;;;5460893;26;19928;-75
2024/04/11 02:03:09;;;;;;;;;;;12.80;99.90;;;;;;5453970;26;19929;-75
2024/04/11 02:05:34;;;;;;;;;;;12.90;99.90;;;;;;5451526;26;19929;-75
2024/04/11 02:08:03;;;;;;;;;;;13.00;99.80;;;;;;5454599;26;19928;-75
2024/04/11 02:10:32;;;;;;;;;;;12.90;99.90;;;;;;5453902;26;19973;-75
2024/04/11 02:12:58;;;;;;;;;;;12.80;99.90;;;;;;5454858;26;20255;-75
2024/04/11 02:15:24;;;;;;;;;;;12.70;99.90;;;;;;5454793;26;19939;-75
2024/04/11 02:17:49;;;;;;;;;;;12.70;99.90;;;;;;5453533;26;19928;-75
2024/04/11 02:20:16;;;;;;;;;;;12.60;99.90;;;;;;5453421;26;20419;-75
2024/04/11 02:22:42;;;;;;;;;;;12.60;99.90;;;;;;5452371;26;19939;-75
2024/04/11 02:25:07;;;;;;;;;;;12.60;99.90;;;;;;5453562;26;20368;-74
2024/04/11 02:27:34;;;;;;;;;;;12.70;99.90;;;;;;5452177;26;20271;-75
2024/04/11 02:29:59;;;;;;;;;;;12.70;99.90;;;;;;5452925;26;19994;-75
2024/04/11 02:32:27;;;;;;;;;;;12.60;99.90;;;;;;5453720;26;20131;-75
2024/04/11 02:34:52;;;;;;;;;;;12.50;99.90;;;;;;5430134;26;19933;-75
2024/04/11 02:37:18;;;;;;;;;;;12.50;99.90;;;;;;5454361;26;19932;-75
2024/04/11 02:39:44;;;;;;;;;;;12.50;99.90;;;;;;5452952;26;19928;-75
2024/04/11 02:42:09;;;;;;;;;;;12.50;99.90;;;;;;5453777;26;19940;-75
2024/04/11 02:44:35;;;;;;;;;;;12.70;99.90;;;;;;5453106;26;19928;-74
2024/04/11 02:47:01;;;;;;;;;;;12.80;99.90;;;;;;5454317;26;20276;-75
2024/04/11 02:49:27;;;;;;;;;;;12.80;99.90;;;;;;5451037;26;20001;-75
2024/04/11 02:51:53;;;;;;;;;;;13.00;99.90;;;;;;5453078;26;19929;-75
2024/04/11 02:54:19;;;;;;;;;;;13.20;99.80;;;;;;5453276;26;19929;-75
2024/04/11 02:56:45;;;;;;;;;;;13.30;99.50;;;;;;5453301;26;20368;-75
2024/04/11 02:59:11;;;;;;;;;;;13.20;99.60;;;;;;5451016;26;20263;-75
2024/04/11 03:01:41;;;;;;;;;;;13.20;99.60;;;;;;5451515;26;19935;-75
2024/04/11 03:04:08;;;;;;;;;;;13.20;99.70;;;;;;5453302;26;19936;-75
2024/04/11 03:06:35;;;;;;;;;;;13.00;99.90;;;;;;5451731;26;19932;-75
2024/04/11 03:09:00;;;;;;;;;;;12.90;99.90;;;;;;5450573;26;19933;-75
2024/04/11 03:11:26;;;;;;;;;;;12.90;99.90;;;;;;5453425;26;20264;-75
2024/04/11 03:14:00;;;;;;;;;;;13.00;99.90;;;;;;5452906;26;19928;-75
2024/04/11 03:16:27;;;;;;;;;;;13.00;99.90;;;;;;5445987;26;19929;-75
2024/04/11 03:18:53;;;;;;;;;;;13.10;99.90;;;;;;5452825;26;19929;-75
2024/04/11 03:21:19;;;;;;;;;;;13.10;99.90;;;;;;5467950;21;19933;-73
2024/04/11 03:23:45;;;;;;;;;;;13.10;99.90;;;;;;5456810;26;19940;-72
2024/04/11 03:26:10;;;;;;;;;;;13.20;99.90;;;;;;5463570;26;20364;-72
2024/04/11 03:28:36;;;;;;;;;;;13.10;99.90;;;;;;5454830;26;19935;-73
2024/04/11 03:31:07;;;;;;;;;;;13.10;99.90;;;;;;5453359;26;19929;-73
2024/04/11 03:33:36;;;;;;;;;;;13.10;99.90;;;;;;5446259;26;20303;-75
2024/04/11 03:36:05;;;;;;;;;;;13.10;99.90;;;;;;5445882;26;19928;-73
2024/04/11 03:38:32;;;;;;;;;;;13.00;99.90;;;;;;5452629;26;19937;-73
2024/04/11 03:41:05;;;;;;;;;;;12.90;99.90;;;;;;5452122;26;20258;-73
2024/04/11 03:43:34;;;;;;;;;;;13.00;99.90;;;;;;5452745;26;19928;-73
2024/04/11 03:46:06;;;;;;;;;;;13.10;99.90;;;;;;5453574;26;19929;-74
2024/04/11 03:48:32;;;;;;;;;;;13.00;99.90;;;;;;5453164;26;19928;-73
2024/04/11 03:50:58;;;;;;;;;;;12.90;99.90;;;;;;5452401;26;19996;-74
2024/04/11 03:53:23;;;;;;;;;;;12.80;99.90;;;;;;5452571;26;19940;-74
2024/04/11 03:55:48;;;;;;;;;;;13.00;99.90;;;;;;5450154;26;20271;-74
2024/04/11 03:58:17;;;;;;;;;;;12.90;99.90;;;;;;5454586;26;19935;-74
2024/04/11 04:00:45;;;;;;;;;;;12.90;99.90;;;;;;5453039;26;19932;-72
2024/04/11 04:03:11;;;;;;;;;;;13.00;99.90;;;;;;5474274;26;19977;-73
2024/04/11 04:05:37;;;;;;;;;;;13.20;99.90;;;;;;5454402;26;19965;-74
2024/04/11 04:08:04;;;;;;;;;;;13.00;99.90;;;;;;5473395;26;19993;-74
2024/04/11 04:10:31;;;;;;;;;;;13.10;99.90;;;;;;5455328;26;19938;-74
2024/04/11 04:12:58;;;;;;;;;;;13.00;99.90;;;;;;5452347;26;20023;-75
2024/04/11 04:15:24;;;;;;;;;;;13.00;99.90;;;;;;5451093;26;20000;-74
2024/04/11 04:17:51;;;;;;;;;;;13.00;99.90;;;;;;5454527;26;20340;-74
2024/04/11 04:20:17;;;;;;;;;;;13.10;99.90;;;;;;5452252;26;19929;-73
2024/04/11 04:22:44;;;;;;;;;;;13.20;99.90;;;;;;5451266;26;19978;-73
2024/04/11 04:25:11;;;;;;;;;;;13.10;99.90;;;;;;5450455;26;19928;-73
2024/04/11 04:27:37;;;;;;;;;;;12.90;99.90;;;;;;5443472;26;20006;-73
2024/04/11 04:30:04;;;;;;;;;;;12.70;99.90;;;;;;5449348;26;20364;-73
2024/04/11 04:32:30;;;;;;;;;;;13.00;99.90;;;;;;5453042;26;19998;-73
2024/04/11 04:34:57;;;;;;;;;;;13.20;99.90;;;;;;5451600;26;19929;-73
2024/04/11 04:37:22;;;;;;;;;;;13.20;99.90;;;;;;5461001;26;19939;-73
2024/04/11 04:39:49;;;;;;;;;;;13.40;99.90;;;;;;5469362;26;19928;-73
2024/04/11 04:42:15;;;;;;;;;;;13.30;99.90;;;;;;5460965;26;19935;-74
2024/04/11 04:44:41;;;;;;;;;;;13.30;99.90;;;;;;5451069;26;19929;-72
2024/04/11 04:47:15;;;;;;;;;;;13.10;99.90;;;;;;5476765;26;19960;-73
2024/04/11 04:49:44;;;;;;;;;;;13.10;99.90;;;;;;5430305;26;19929;-73
2024/04/11 04:52:10;;;;;;;;;;;13.20;99.90;;;;;;5449976;26;19940;-74
2024/04/11 04:54:36;;;;;;;;;;;13.30;99.90;;;;;;5453087;26;20414;-74
2024/04/11 04:57:03;;;;;;;;;;;13.20;99.90;;;;;;5450977;26;19940;-73
2024/04/11 04:59:29;;;;;;;;;;;13.30;99.90;;;;;;5450110;26;19929;-73
2024/04/11 05:01:54;;;;;;;;;;;13.30;99.90;;;;;;5452074;26;19928;-74
2024/04/11 05:04:21;;;;;;;;;;;13.40;99.90;;;;;;5452337;26;20337;-74
2024/04/11 05:06:49;;;;;;;;;;;13.40;99.90;;;;;;5445682;26;19933;-74
2024/04/11 05:09:14;;;;;;;;;;;13.50;99.90;;;;;;5451499;26;19928;-74
2024/04/11 05:11:40;;;;;;;;;;;13.30;99.90;;;;;;5451451;26;19935;-75
2024/04/11 05:14:07;;;;;;;;;;;13.40;99.90;;;;;;5450711;26;20361;-74
2024/04/11 05:16:34;;;;;;;;;;;13.50;99.90;;;;;;5422653;26;19933;-74
2024/04/11 05:19:00;;;;;;;;;;;13.60;99.90;;;;;;5449084;26;20436;-74
2024/04/11 05:21:26;;;;;;;;;;;13.50;99.90;;;;;;5452057;26;19929;-74
2024/04/11 05:23:54;;;;;;;;;;;13.40;99.90;;;;;;5436524;26;20310;-74
2024/04/11 05:26:23;;;;;;;;;;;13.30;99.90;;;;;;5417589;26;19928;-73
2024/04/11 05:28:53;;;;;;;;;;;13.20;99.90;;;;;;5440170;26;19936;-75
2024/04/11 05:31:25;;;;;;;;;;;13.10;99.90;;;;;;5453104;26;19943;-74
2024/04/11 05:33:53;;;;;;;;;;;13.30;99.90;;;;;;5474018;26;19928;-74
2024/04/11 05:36:21;;;;;;;;;;;13.50;99.90;;;;;;5473814;26;19953;-73
2024/04/11 05:38:48;;;;;;;;;;;13.40;99.90;;;;;;5470512;26;19936;-72
2024/04/11 05:41:14;;;;;;;;;;;13.30;99.90;;;;;;5459284;26;19944;-73
2024/04/11 05:43:43;;;;;;;;;;;13.20;99.90;;;;;;5452332;26;20332;-75
2024/04/11 05:46:13;;;;;;;;;;;13.20;99.90;;;;;;5448086;26;19940;-74
2024/04/11 05:48:42;;;;;;;;;;;13.40;99.90;;;;;;5449466;26;19936;-74
2024/04/11 05:51:10;;;;;;;;;;;13.50;99.90;;;;;;5449246;26;20346;-72
2024/04/11 05:53:40;;;;;;;;;;;13.60;99.90;;;;;;5451394;26;20255;-73
2024/04/11 05:56:07;;;;;;;;;;;13.70;99.90;;;;;;5451278;26;19997;-74
2024/04/11 05:58:35;;;;;;;;;;;13.60;99.90;;;;;;5451152;26;19928;-73
2024/04/11 06:01:05;;;;;;;;;;;13.60;99.90;;;;;;5451195;26;19929;-74
2024/04/11 06:03:34;;;;;;;;;;;13.50;99.90;;;;;;5450958;26;19997;-74
2024/04/11 06:05:59;;;;;;;;;;;13.60;99.90;;;;;;5467251;26;19929;-74
2024/04/11 06:08:25;;;;;;;;;;;13.60;99.90;;;;;;5451147;26;20002;-73
2024/04/11 06:10:51;;;;;;;;;;;13.60;99.90;;;;;;5451038;26;19933;-73
2024/04/11 06:13:17;;;;;;;;;;;13.70;99.90;;;;;;5451630;26;19939;-73
2024/04/11 06:15:43;;;;;;;;;;;13.80;99.90;;;;;;5451446;26;19997;-73
2024/04/11 06:18:09;;;;;;;;;;;13.80;99.90;;;;;;5450743;26;19933;-74
2024/04/11 06:20:38;;;;;;;;;;;13.90;99.90;;;;;;5449911;26;19939;-73
2024/04/11 06:23:15;;;;;;;;;;;13.90;99.90;;;;;;5464776;26;19940;-74
2024/04/11 06:25:41;;;;;;;;;;;13.90;99.90;;;;;;5453875;26;19936;-75
2024/04/11 06:28:07;;;;;;;;;;;13.80;99.90;;;;;;5452490;26;19928;-72
2024/04/11 06:30:38;;;;;;;;;;;13.90;99.90;;;;;;5452089;26;19935;-73
2024/04/11 06:33:08;;;;;;;;;;;13.90;99.90;;;;;;5464178;26;19929;-73
2024/04/11 06:35:36;;;;;;;;;;;14.00;99.90;;;;;;5439159;26;19936;-73
2024/04/11 06:38:05;;;;;;;;;;;13.90;99.90;;;;;;5452669;26;19937;-73
2024/04/11 06:40:32;;;;;;;;;;;13.90;99.90;;;;;;5467602;26;20004;-73
2024/04/11 06:42:59;;;;;;;;;;;13.80;99.90;;;;;;5456041;26;19936;-73
2024/04/11 06:45:24;;;;;;;;;;;13.90;99.90;;;;;;5454183;26;20340;-73
2024/04/11 06:47:50;;;;;;;;;;;13.90;99.90;;;;;;5453904;26;19929;-74
2024/04/11 06:50:16;;;;;;;;;;;14.00;99.90;;;;;;5452524;26;20432;-74
2024/04/11 06:52:44;;;;;;;;;;;14.10;99.90;;;;;;5454325;26;19940;-74
2024/04/11 06:55:13;;;;;;;;;;;14.30;99.90;;;;;;5454155;26;19929;-74
2024/04/11 06:57:44;;;;;;;;;;;14.60;99.90;;;;;;5454274;26;19944;-73
2024/04/11 07:00:25;;;;;;;;;;;14.70;99.90;;;;;;5453517;26;19939;-73
2024/04/11 07:02:54;;;;;;;;;;;14.70;99.90;;;;;;5452767;26;19956;-72
2024/04/11 07:05:23;;;;;;;;;;;14.90;99.90;;;;;;5472222;26;19929;-74
2024/04/11 07:07:54;;;;;;;;;;;15.00;99.90;;;;;;5453905;26;19996;-74
2024/04/11 07:10:25;;;;;;;;;;;15.10;99.90;;;;;;5451246;26;19947;-74
2024/04/11 07:12:52;;;;;;;;;;;15.10;99.90;;;;;;5453702;26;19963;-74
2024/04/11 07:15:18;;;;;;;;;;;15.30;99.90;;;;;;5456704;26;19928;-74
2024/04/11 07:17:56;;;;;;;;;;;15.30;99.90;;;;;;5453945;26;19932;-73
2024/04/11 07:20:26;;;;;;;;;;;15.50;99.90;;;;;;5459281;26;19928;-74
2024/04/11 07:22:54;;;;;;;;;;;15.80;99.90;;;;;;5450707;26;19996;-74
2024/04/11 07:25:20;;;;;;;;;;;15.90;99.90;;;;;;5460535;26;20367;-73
2024/04/11 07:27:46;;;;;;;;;;;16.10;99.90;;;;;;5454510;26;19940;-74
2024/04/11 07:30:11;;;;;;;;;;;16.20;99.90;;;;;;5451572;26;19929;-74
2024/04/11 07:32:40;;;;;;;;;;;16.20;99.90;;;;;;5454329;26;19928;-73
2024/04/11 07:35:06;;;;;;;;;;;16.00;99.90;;;;;;5447923;26;19929;-74
2024/04/11 07:37:32;;;;;;;;;;;16.00;99.90;;;;;;5466460;26;19928;-73
2024/04/11 07:40:00;;;;;;;;;;;16.10;99.90;;;;;;5452963;26;19937;-74
2024/04/11 07:42:48;;;;;;;;;;;16.20;99.90;;;;;;5452260;26;19933;-73
2024/04/11 07:45:17;;;;;;;;;;;16.20;99.90;;;;;;5452987;26;19997;-74
2024/04/11 07:47:43;;;;;;;;;;;16.20;99.90;;;;;;5451254;26;20017;-74
2024/04/11 07:50:11;;;;;;;;;;;16.20;99.90;;;;;;5452864;26;20371;-74
2024/04/11 07:52:37;;;;;;;;;;;16.20;99.90;;;;;;5456751;26;19935;-75
2024/04/11 07:55:03;;;;;;;;;;;16.20;99.90;;;;;;5461689;26;20438;-73
2024/04/11 07:57:29;;;;;;;;;;;16.20;99.90;;;;;;5465521;26;20294;-73
2024/04/11 07:59:55;;;;;;;;;;;16.30;99.90;;;;;;5459445;26;19929;-74
2024/04/11 08:02:21;;;;;;;;;;;16.40;99.90;;;;;;5451911;26;19955;-73
2024/04/11 08:04:47;;;;;;;;;;;16.50;99.90;;;;;;5454060;26;19997;-73
2024/04/11 08:07:12;;;;;;;;;;;16.40;99.90;;;;;;5462286;26;20000;-73
2024/04/11 08:09:44;;;;;;;;;;;16.30;99.90;;;;;;5466671;26;19933;-74
2024/04/11 08:12:10;;;;;;;;;;;16.20;99.90;;;;;;5462189;26;20373;-74
2024/04/11 08:14:35;;;;;;;;;;;16.10;99.90;;;;;;5467240;26;19928;-74
2024/04/11 08:17:01;;;;;;;;;;;16.10;99.90;;;;;;5445123;26;20529;-74
2024/04/11 08:19:26;;;;;;;;;;;16.00;99.90;;;;;;5438008;26;19960;-74
2024/04/11 08:21:52;;;;;;;;;;;16.00;99.90;;;;;;5475537;26;20376;-74
2024/04/11 08:24:17;;;;;;;;;;;15.90;99.90;;;;;;5445189;26;19929;-74
2024/04/11 08:26:43;;;;;;;;;;;15.90;99.90;;;;;;5448423;26;20299;-74
2024/04/11 08:29:08;;;;;;;;;;;16.00;99.90;;;;;;5451677;26;19940;-74
2024/04/11 08:31:34;;;;;;;;;;;16.00;99.90;;;;;;5452802;26;19936;-73
2024/04/11 08:34:00;;;;;;;;;;;15.90;99.90;;;;;;5452737;26;19928;-73
2024/04/11 08:36:29;;;;;;;;;;;16.00;99.90;;;;;;5450084;26;19928;-74
2024/04/11 08:38:55;;;;;;;;;;;16.10;99.90;;;;;;5450226;26;19929;-73
2024/04/11 08:41:20;;;;;;;;;;;16.20;99.90;;;;;;5460162;26;19935;-73
2024/04/11 08:43:46;;;;;;;;;;;16.40;99.90;;;;;;5466412;26;19951;-73
2024/04/11 08:46:12;;;;;;;;;;;16.50;99.90;;;;;;5449611;26;19964;-73
2024/04/11 08:48:38;;;;;;;;;;;16.50;99.90;;;;;;5451880;26;19939;-73
2024/04/11 08:51:06;;;;;;;;;;;16.50;99.90;;;;;;5450258;26;19936;-73
2024/04/11 08:53:32;;;;;;;;;;;16.60;99.90;;;;;;5452478;26;19935;-72
2024/04/11 08:55:59;;;;;;;;;;;16.80;99.90;;;;;;5450014;26;19976;-73
2024/04/11 08:58:25;;;;;;;;;;;16.90;99.90;;;;;;5450175;26;19928;-73
2024/04/11 09:00:51;;;;;;;;;;;17.00;99.90;;;;;;5450253;26;19935;-73
2024/04/11 09:03:17;;;;;;;;;;;17.10;99.90;;;;;;5452110;26;19928;-73
2024/04/11 09:05:46;;;;;;;;;;;17.00;99.90;;;;;;5451298;26;19935;-73
2024/04/11 09:08:12;;;;;;;;;;;17.00;99.90;;;;;;5449887;26;19933;-73
2024/04/11 09:10:39;;;;;;;;;;;17.20;99.90;;;;;;5450550;26;19929;-72
2024/04/11 09:13:04;;;;;;;;;;;17.40;99.90;;;;;;5450015;26;19939;-72
2024/04/11 09:15:32;;;;;;;;;;;17.60;99.90;;;;;;5451807;26;19932;-73
2024/04/11 09:17:57;;;;;;;;;;;17.50;99.90;;;;;;5451638;26;20029;-73
2024/04/11 09:20:24;;;;;;;;;;;17.60;99.90;;;;;;5449800;26;19940;-72
2024/04/11 09:22:51;;;;;;;;;;;17.80;99.90;;;;;;5450392;26;19997;-74
2024/04/11 09:25:22;;;;;;;;;;;18.00;99.90;;;;;;5449885;26;20436;-75
2024/04/11 09:27:50;;;;;;;;;;;18.30;99.90;;;;;;5450124;26;19928;-75
2024/04/11 09:30:22;;;;;;;;;;;18.30;99.90;;;;;;5450041;26;20362;-75
2024/04/11 09:32:50;;;;;;;;;;;18.30;99.90;;;;;;5451982;26;19933;-75
2024/04/11 09:35:20;;;;;;;;;;;18.30;99.90;;;;;;5449642;26;19928;-74
2024/04/11 09:37:49;;;;;;;;;;;18.30;99.90;;;;;;5450756;26;19961;-74
2024/04/11 09:40:26;;;;;;;;;;;18.20;99.90;;;;;;5449295;26;19935;-74
2024/04/11 09:43:03;;;;;;;;;;;18.20;99.90;;;;;;5474591;26;19939;-74
2024/04/11 09:45:32;;;;;;;;;;;18.10;99.90;;;;;;5452022;26;19929;-75
2024/04/11 09:48:00;;;;;;;;;;;17.90;99.90;;;;;;5479100;26;19936;-74
2024/04/11 09:50:30;;;;;;;;;;;17.80;99.90;;;;;;5473106;26;19927;-75
2024/04/11 09:52:57;;;;;;;;;;;17.70;99.90;;;;;;5448808;26;19960;-74
2024/04/11 09:55:33;;;;;;;;;;;17.70;99.90;;;;;;5449024;26;20671;-74
2024/04/11 09:58:05;;;;;;;;;;;17.80;99.90;;;;;;5450976;26;19952;-75
2024/04/11 10:01:04;;;;;;;;;;;17.60;99.90;;;;;;5454391;26;19935;-76
2024/04/11 10:03:31;;;;;;;;;;;17.40;99.90;;;;;;5453695;26;20244;-76
2024/04/11 10:06:04;;;;;;;;;;;17.30;99.90;;;;;;5453405;26;19935;-75
2024/04/11 10:08:34;;;;;;;;;;;17.40;99.90;;;;;;5452958;26;19928;-75
2024/04/11 10:11:03;;;;;;;;;;;17.30;99.90;;;;;;5461263;26;19929;-75
2024/04/11 10:13:41;;;;;;;;;;;17.20;99.90;;;;;;5460959;26;19928;-75
2024/04/11 10:16:13;;;;;;;;;;;17.40;99.90;;;;;;5453358;26;20469;-75
2024/04/11 10:18:51;;;;;;;;;;;17.70;99.90;;;;;;5454397;26;19940;-75
2024/04/11 10:21:26;;;;;;;;;;;17.70;99.90;;;;;;5430973;26;19929;-76
2024/04/11 10:23:55;;;;;;;;;;;17.50;99.90;;;;;;5432230;26;19929;-76
2024/04/11 10:26:33;;;;;;;;;;;17.30;99.90;;;;;;5475217;26;19928;-75
2024/04/11 10:29:20;;;;;;;;;;;17.20;99.90;;;;;;5451843;26;20295;-75
2024/04/11 10:31:47;;;;;;;;;;;17.30;99.90;;;;;;5454811;26;19993;-75
2024/04/11 10:34:19;;;;;;;;;;;17.50;99.90;;;;;;5453009;26;20260;-75
2024/04/11 10:36:53;;;;;;;;;;;17.80;99.90;;;;;;5431306;26;19996;-76
2024/04/11 10:39:18;;;;;;;;;;;17.70;99.90;;;;;;5478402;26;19928;-76
2024/04/11 10:41:45;;;;;;;;;;;17.60;99.90;;;;;;5453858;26;19944;-74
2024/04/11 10:44:12;;;;;;;;;;;17.60;99.90;;;;;;5452072;26;19992;-75
2024/04/11 10:46:38;;;;;;;;;;;17.70;99.90;;;;;;5455240;26;19933;-77
2024/04/11 10:49:15;;;;;;;;;;;17.70;99.90;;;;;;5452462;26;20395;-76
2024/04/11 10:51:41;;;;;;;;;;;17.90;99.90;;;;;;5453617;26;19958;-76
2024/04/11 10:54:10;;;;;;;;;;;18.00;99.90;;;;;;5452711;26;19933;-75
2024/04/11 10:56:37;;;;;;;;;;;17.90;99.90;;;;;;5472035;26;19955;-77
2024/04/11 10:59:06;;;;;;;;;;;18.20;99.90;;;;;;5456798;26;19928;-76
2024/04/11 11:01:33;;;;;;;;;;;18.20;99.90;;;;;;5453975;26;19936;-76
2024/04/11 11:04:00;;;;;;;;;;;18.10;99.90;;;;;;5454417;26;19939;-76
2024/04/11 11:06:25;;;;;;;;;;;18.00;99.90;;;;;;5452439;26;20238;-76
2024/04/11 11:08:55;;;;;;;;;;;18.20;99.90;;;;;;5452666;26;20720;-76
2024/04/11 11:11:23;;;;;;;;;;;18.30;99.90;;;;;;5453665;26;20404;-76
2024/04/11 11:13:52;;;;;;;;;;;18.50;99.90;;;;;;5456599;26;19940;-75
2024/04/11 11:16:21;;;;;;;;;;;18.70;99.90;;;;;;5458525;26;19936;-76
2024/04/11 11:18:51;;;;;;;;;;;18.60;99.90;;;;;;5455136;26;19936;-75
2024/04/11 11:21:22;;;;;;;;;;;18.60;99.90;;;;;;5454189;26;19936;-77
2024/04/11 11:24:00;;;;;;;;;;;18.80;99.90;;;;;;5458786;26;19928;-75
2024/04/11 11:26:35;;;;;;;;;;;18.90;99.90;;;;;;5453204;26;20275;-74
2024/04/11 11:29:03;;;;;;;;;;;19.00;99.90;;;;;;5451398;26;20374;-75
2024/04/11 11:31:31;;;;;;;;;;;19.20;99.90;;;;;;5452021;26;20383;-75
2024/04/11 11:33:59;;;;;;;;;;;19.50;99.90;;;;;;5456599;26;19961;-76
2024/04/11 11:36:25;;;;;;;;;;;19.40;99.90;;;;;;5454923;26;19997;-75
2024/04/11 11:38:54;;;;;;;;;;;19.50;99.90;;;;;;5453190;26;20345;-76
2024/04/11 11:41:20;;;;;;;;;;;19.70;99.90;;;;;;5453162;26;19944;-78
2024/04/11 11:43:46;;;;;;;;;;;19.70;99.90;;;;;;5466929;26;20455;-75
2024/04/11 11:46:44;;;;;;;;;;;19.70;99.90;;;;;;5455764;26;20015;-75
2024/04/11 11:49:04;;;;;;;;;;;19.80;99.90;;;;;;5461294;26;20269;-75
2024/04/11 11:51:29;;;;;;;;;;;19.80;99.90;;;;;;5452827;26;19932;-75
2024/04/11 11:54:00;;;;;;;;;;;19.90;99.90;;;;;;5451316;26;19937;-75
2024/04/11 11:56:31;;;;;;;;;;;20.00;99.90;;;;;;5445365;26;19949;-75
2024/04/11 11:59:03;;;;;;;;;;;20.00;99.90;;;;;;5447662;26;20403;-75
2024/04/11 12:01:31;;;;;;;;;;;20.10;99.90;;;;;;5437458;26;19929;-73
2024/04/11 12:03:57;;;;;;;;;;;20.10;99.90;;;;;;5450978;26;20140;-76
2024/04/11 12:06:23;;;;;;;;;;;20.30;99.90;;;;;;5452835;26;19928;-75
2024/04/11 12:08:49;;;;;;;;;;;20.50;99.90;;;;;;5451330;26;19943;-75
2024/04/11 12:11:14;;;;;;;;;;;20.70;99.90;;;;;;5451360;26;19932;-76
2024/04/11 12:13:51;;;;;;;;;;;20.70;99.90;;;;;;5459521;26;19928;-75
2024/04/11 12:16:17;;;;;;;;;;;20.70;99.90;;;;;;5466910;26;19929;-77
2024/04/11 12:18:43;;;;;;;;;;;20.60;99.90;;;;;;5452076;26;19928;-77
2024/04/11 12:21:25;;;;;;;;;;;20.50;99.90;;;;;;5450891;26;20279;-76
2024/04/11 12:23:51;;;;;;;;;;;20.70;99.90;;;;;;5444195;26;19952;-76
2024/04/11 12:26:18;;;;;;;;;;;20.80;99.90;;;;;;5429829;26;19979;-76
2024/04/11 12:28:45;;;;;;;;;;;20.90;99.90;;;;;;5460972;26;19929;-75
2024/04/11 12:31:15;;;;;;;;;;;21.10;99.90;;;;;;5451788;26;20272;-76
2024/04/11 12:33:45;;;;;;;;;;;21.40;99.90;;;;;;5450954;26;20026;-76
2024/04/11 12:39:12;;;;;;;;;;;21.20;99.90;;;;;;5452254;26;19997;-75
2024/04/11 12:41:46;;;;;;;;;;;21.10;99.90;;;;;;5429397;26;19933;-76
2024/04/11 12:44:12;;;;;;;;;;;21.10;99.90;;;;;;5452969;26;19935;-76
2024/04/11 12:46:49;;;;;;;;;;;21.00;99.90;;;;;;5450993;26;19940;-76
2024/04/11 12:49:15;;;;;;;;;;;20.90;99.90;;;;;;5452308;26;19937;-76
2024/04/11 12:51:45;;;;;;;;;;;20.70;99.90;;;;;;5450457;26;20368;-77
2024/04/11 12:54:15;;;;;;;;;;;20.40;99.90;;;;;;5452601;26;19943;-78
2024/04/11 12:56:45;;;;;;;;;;;20.20;99.90;;;;;;5449936;26;20001;-78
2024/04/11 12:59:30;;;;;;;;;;;20.30;99.90;;;;;;5448698;26;19939;-76
2024/04/11 13:01:59;;;;;;;;;;;20.10;99.90;;;;;;5452647;26;19928;-75
2024/04/11 13:04:32;;;;;;;;;;;20.00;99.90;;;;;;5450421;26;19928;-77
2024/04/11 13:07:10;;;;;;;;;;;20.10;99.90;;;;;;5452195;26;20325;-75
2024/04/11 13:09:48;;;;;;;;;;;19.90;99.90;;;;;;5452673;26;19936;-76
2024/04/11 13:12:16;;;;;;;;;;;19.90;99.90;;;;;;5451074;26;20000;-75
2024/04/11 13:14:55;;;;;;;;;;;19.80;99.90;;;;;;5450545;26;20297;-75
2024/04/11 13:17:33;;;;;;;;;;;20.00;99.90;;;;;;5430874;26;19928;-76
2024/04/11 13:19:59;;;;;;;;;;;20.40;99.90;;;;;;5451601;26;19936;-76
2024/04/11 13:22:28;;;;;;;;;;;20.50;99.90;;;;;;5452810;26;19997;-76
2024/04/11 13:25:00;;;;;;;;;;;20.40;99.90;;;;;;5449586;26;20061;-79
2024/04/11 13:27:29;;;;;;;;;;;20.50;99.90;;;;;;5450770;26;19928;-77
2024/04/11 13:30:11;;;;;;;;;;;20.70;99.90;;;;;;5460392;26;19928;-76
2024/04/11 13:32:55;;;;;;;;;;;20.70;99.90;;;;;;5460912;26;19940;-76
2024/04/11 13:35:36;;;;;;;;;;;20.80;99.90;;;;;;5451509;26;19937;-76
2024/04/11 13:38:12;;;;;;;;;;;20.80;99.90;;;;;;5451401;26;20272;-76
2024/04/11 13:43:37;;;;;;;;;;;20.70;99.90;;;;;;5434789;26;19939;-76
2024/04/11 13:46:12;;;;;;;;;;;20.90;99.90;;;;;;5450205;26;19952;-77
2024/04/11 13:48:38;;;;;;;;;;;21.00;99.90;;;;;;5449418;26;19929;-77
2024/04/11 13:51:09;;;;;;;;;;;20.90;99.90;;;;;;5449634;26;19929;-77
2024/04/11 13:53:36;;;;;;;;;;;20.50;99.90;;;;;;5442270;26;20372;-79
2024/04/11 13:56:04;;;;;;;;;;;20.50;99.90;;;;;;5432007;26;20046;-78
2024/04/11 13:58:32;;;;;;;;;;;20.40;99.90;;;;;;5449198;26;20384;-79
2024/04/11 14:01:04;;;;;;;;;;;20.30;99.90;;;;;;5451092;26;20253;-76
2024/04/11 14:03:45;;;;;;;;;;;20.30;99.90;;;;;;5473106;26;19959;-79
2024/04/11 14:08:46;;;;;;;;;;;20.30;99.90;;;;;;5450765;26;19928;-76
2024/04/11 14:11:16;;;;;;;;;;;20.20;99.90;;;;;;5449159;26;19936;-79
2024/04/11 14:13:47;;;;;;;;;;;20.10;99.90;;;;;;5441986;26;19935;-78
2024/04/11 14:16:14;;;;;;;;;;;20.00;99.90;;;;;;5427113;26;19953;-77
2024/04/11 14:18:47;;;;;;;;;;;20.20;99.90;;;;;;5448204;26;20289;-78
2024/04/11 14:21:21;;;;;;;;;;;20.00;99.90;;;;;;5442869;26;19929;-77
2024/04/11 14:23:52;;;;;;;;;;;19.80;99.90;;;;;;5449798;26;19929;-77
2024/04/11 14:26:51;;;;;;;;;;;19.90;99.90;;;;;;5451633;26;19939;-77
2024/04/11 14:29:20;;;;;;;;;;;19.90;99.90;;;;;;5442698;26;19933;-75
2024/04/11 14:31:52;;;;;;;;;;;19.70;99.90;;;;;;5451343;26;19940;-76